Aérodrome :
LOGIN :

S'inscrire | Disclaimer

   EN    FR    IT 

 










Légende :    VFR   VFR Marginal   IFR   IFR Intensif   IFR Très Intensif
Visi : 
Plafond : 
>= 8 km
>= 3000ft
5 à 8 km
1000 à 3000 ft
1500m à 5 km
500 à 1000 ft
800 à 1500m
200 à 500 ft
< 800m
< 200 ft
Symboles :   Orages  Brouillard  Fortes neiges  Fortes précipitations  Vent > 20 kt
SIGMETs :   Divers  Orages  Givrage  Turbulence  Onde Orograph.  Cendres Volcan.






- Altitude de l'aérodrome : 276 ft
- Code IATA : RBA


GMME - Rabat

DERNIER METAR :
  • 021000Z 23003KT 6000 SCT016 24/17 Q1015 NOSIG

METARs EXPIRÉS :
  • 020930Z 23004KT 6000 SCT016 24/17 Q1016 NOSIG
  • 020900Z 23004KT 6000 SCT016 23/15 Q1016 NOSIG
  • 020830Z 23004KT 6000 SCT016 23/16 Q1016 NOSIG
  • 020800Z 00000KT 6000 SCT016 23/16 Q1016 NOSIG
  • 020730Z 00000KT 5000 NSC 21/17 Q1015 NOSIG

TAF TAF GMME
Valide du 02 à 06h jusqu'au 03 à 12h UTC


020500Z 0206/0312 34006KT 7000 SCT016
TEMPO 0212/0218 36016KT
TEMPO 0220/0302 VRB02KT 5000 SCT013 BKN016



MET'MAP, la Météo Aéronautique d'un coup d'oeil ! - Copyright ORBIFLY Décembre 2007 - Disclaimer

ORBIFLY MET'MAP TEAM :

Programmation & Développement : Alexandra Zaïnal
Sur une idée originale de : Baudouin d'Aumeries
Assistance à la programmation : Marc-Olivier Méhu
Soutien technique & logistique : Manuel Goepfert

Contact : metmap@orbifly.com




SOURCES & CREDITS :

   NOAA